createdAt,value
2018-08-20T00:01:46.596Z,84.69
2018-08-20T00:04:15.961Z,84.35
2018-08-20T00:06:55.479Z,84.66
2018-08-20T00:09:37.020Z,84.83
2018-08-20T00:12:08.770Z,84.70
2018-08-20T00:14:38.290Z,84.63
2018-08-20T00:17:07.336Z,84.78
2018-08-20T00:19:37.212Z,85.03
2018-08-20T00:22:06.657Z,84.98
2018-08-20T00:24:35.962Z,85.16
2018-08-20T00:27:05.701Z,84.99
2018-08-20T00:29:39.437Z,85.24
2018-08-20T00:32:08.892Z,84.79
2018-08-20T00:34:38.280Z,84.82
2018-08-20T00:37:07.629Z,84.92
2018-08-20T00:39:37.445Z,85.16
2018-08-20T00:42:06.962Z,84.62
2018-08-20T00:44:36.785Z,84.99
2018-08-20T00:47:06.537Z,84.60
2018-08-20T00:49:36.164Z,85.00
2018-08-20T00:52:06.277Z,84.54
2018-08-20T00:54:36.155Z,84.95
2018-08-20T00:57:05.896Z,84.62
2018-08-20T00:59:35.524Z,84.83
2018-08-20T01:02:05.259Z,84.53
2018-08-20T01:04:34.613Z,84.39
2018-08-20T01:07:04.497Z,84.90
2018-08-20T01:09:34.045Z,85.02
2018-08-20T01:12:03.277Z,84.81
2018-08-20T01:14:32.780Z,85.03
2018-08-20T01:17:02.064Z,85.29
2018-08-20T01:19:31.247Z,85.61
2018-08-20T01:22:00.908Z,85.74
2018-08-20T01:24:30.172Z,85.68
2018-08-20T01:26:59.555Z,85.67
2018-08-20T01:29:28.905Z,85.11
2018-08-20T01:31:58.445Z,85.21
2018-08-20T01:34:27.913Z,84.89
2018-08-20T01:36:57.165Z,85.42
2018-08-20T01:39:26.376Z,85.35
2018-08-20T01:41:55.497Z,84.80
2018-08-20T01:44:24.895Z,85.18
2018-08-20T01:46:53.969Z,85.03
2018-08-20T01:49:23.198Z,84.59
2018-08-20T01:51:52.432Z,85.00
2018-08-20T01:54:22.067Z,84.65
2018-08-20T01:56:51.059Z,84.88
2018-08-20T01:59:20.873Z,84.83
2018-08-20T02:01:50.266Z,84.94
2018-08-20T02:04:19.378Z,85.29
2018-08-20T02:06:48.629Z,85.21
2018-08-20T02:09:17.811Z,85.04
2018-08-20T02:11:47.112Z,85.20
2018-08-20T02:14:16.581Z,85.12
2018-08-20T02:16:46.133Z,84.93
2018-08-20T02:19:15.228Z,84.94
2018-08-20T02:21:44.945Z,84.71
2018-08-20T02:24:14.037Z,84.41
2018-08-20T02:26:43.139Z,84.64
2018-08-20T02:29:12.725Z,84.79
2018-08-20T02:31:41.854Z,84.61
2018-08-20T02:34:11.280Z,84.12
2018-08-20T02:36:40.792Z,84.52
2018-08-20T02:39:13.328Z,84.51
2018-08-20T02:41:43.145Z,84.56
2018-08-20T02:44:13.997Z,84.07
2018-08-20T02:46:50.272Z,84.44
2018-08-20T02:49:22.752Z,84.16
2018-08-20T02:51:52.148Z,84.17
2018-08-20T02:54:21.347Z,84.33
2018-08-20T02:56:50.521Z,83.90
2018-08-20T02:59:20.372Z,84.35
2018-08-20T03:01:49.661Z,84.29
2018-08-20T03:04:19.241Z,83.87
2018-08-20T03:06:48.562Z,84.39
2018-08-20T03:09:17.870Z,84.50
2018-08-20T03:11:47.460Z,84.45
2018-08-20T03:14:16.543Z,84.44
2018-08-20T03:16:45.626Z,84.65
2018-08-20T03:19:14.973Z,84.58
2018-08-20T03:21:44.259Z,84.19
2018-08-20T03:24:13.475Z,84.30
2018-08-20T03:26:42.882Z,84.21
2018-08-20T03:29:12.169Z,84.21
2018-08-20T03:31:41.412Z,84.64
2018-08-20T03:34:10.812Z,84.15
2018-08-20T03:36:40.091Z,84.36
2018-08-20T03:39:09.206Z,84.36
2018-08-20T03:41:38.506Z,84.41
2018-08-20T03:44:07.880Z,83.89
2018-08-20T03:46:37.088Z,84.26
2018-08-20T03:49:06.779Z,83.92
2018-08-20T03:51:36.352Z,83.89
2018-08-20T03:54:06.247Z,84.25
2018-08-20T03:56:36.055Z,84.45
2018-08-20T03:59:05.846Z,84.16
2018-08-20T04:01:35.679Z,84.01
2018-08-20T04:04:05.766Z,84.45
2018-08-20T04:06:35.324Z,84.46
2018-08-20T04:09:05.289Z,84.08
2018-08-20T04:11:35.335Z,84.30
2018-08-20T04:14:05.060Z,83.89
2018-08-20T04:16:34.446Z,83.87
2018-08-20T04:19:07.049Z,84.32
2018-08-20T04:21:37.242Z,83.99
2018-08-20T04:24:07.105Z,83.84
2018-08-20T04:26:36.542Z,83.82
2018-08-20T04:29:06.416Z,83.85
2018-08-20T04:31:36.332Z,83.49
2018-08-20T04:34:06.254Z,83.45
2018-08-20T04:36:35.730Z,83.62
2018-08-20T04:39:06.645Z,84.04
2018-08-20T04:41:36.446Z,83.79
2018-08-20T04:44:06.871Z,83.51
2018-08-20T04:46:36.308Z,83.96
2018-08-20T04:49:05.894Z,83.69
2018-08-20T04:51:35.823Z,83.35
2018-08-20T04:54:05.539Z,83.89
2018-08-20T04:56:34.998Z,83.82
2018-08-20T04:59:04.869Z,84.51
2018-08-20T05:01:34.908Z,83.97
2018-08-20T05:04:04.842Z,83.49
2018-08-20T05:06:34.784Z,83.33
2018-08-20T05:09:04.656Z,83.32
2018-08-20T05:11:34.503Z,83.27
2018-08-20T05:14:05.389Z,83.19
2018-08-20T05:16:34.954Z,83.58
2018-08-20T05:19:04.653Z,83.15
2018-08-20T05:21:34.494Z,83.10
2018-08-20T05:24:04.822Z,83.01
2018-08-20T05:26:34.261Z,83.27
2018-08-20T05:29:04.302Z,82.86
2018-08-20T05:31:33.790Z,82.54
2018-08-20T05:34:04.539Z,83.02
2018-08-20T05:36:34.367Z,82.66
2018-08-20T05:39:04.275Z,82.18
2018-08-20T05:41:33.654Z,82.11
2018-08-20T05:44:03.301Z,81.79
2018-08-20T05:46:33.024Z,81.83
2018-08-20T05:49:02.664Z,82.00
2018-08-20T05:51:32.561Z,81.63
2018-08-20T05:54:02.655Z,81.75
2018-08-20T05:56:32.241Z,81.06
2018-08-20T05:59:02.103Z,81.68
2018-08-20T06:01:31.462Z,81.09
2018-08-20T06:04:01.029Z,80.42
2018-08-20T06:06:30.970Z,80.86
2018-08-20T06:09:00.353Z,80.61
2018-08-20T06:11:29.754Z,80.17
2018-08-20T06:13:59.428Z,80.29
2018-08-20T06:16:28.905Z,80.06
2018-08-20T06:18:58.417Z,79.74
2018-08-20T06:21:27.999Z,79.61
2018-08-20T06:23:57.583Z,79.08
2018-08-20T06:26:27.191Z,78.90
2018-08-20T06:28:56.659Z,78.57
2018-08-20T06:31:26.132Z,79.14
2018-08-20T06:33:55.507Z,79.97
2018-08-20T06:36:25.251Z,80.62
2018-08-20T06:38:54.648Z,80.32
2018-08-20T06:41:24.261Z,80.33
2018-08-20T06:43:53.841Z,80.83
2018-08-20T06:46:23.179Z,80.66
2018-08-20T06:48:52.451Z,80.65
2018-08-20T06:51:22.166Z,80.68
2018-08-20T06:53:51.934Z,81.21
2018-08-20T06:56:21.693Z,81.23
2018-08-20T06:58:51.461Z,80.83
2018-08-20T07:01:20.957Z,80.75
2018-08-20T07:03:50.379Z,80.47
2018-08-20T07:06:20.107Z,81.28
2018-08-20T07:08:49.645Z,81.37
2018-08-20T07:11:19.333Z,81.28
2018-08-20T07:13:49.284Z,81.40
2018-08-20T07:16:18.728Z,81.68
2018-08-20T07:18:48.123Z,81.98
2018-08-20T07:21:17.983Z,81.99
2018-08-20T07:23:47.865Z,81.75
2018-08-20T07:26:17.253Z,81.70
2018-08-20T07:28:47.034Z,81.21
2018-08-20T07:31:16.362Z,81.43
2018-08-20T07:33:45.852Z,81.44
2018-08-20T07:36:15.425Z,81.42
2018-08-20T07:38:44.880Z,81.33
2018-08-20T07:41:14.332Z,81.06
2018-08-20T07:43:43.916Z,80.65
2018-08-20T07:46:13.278Z,80.46
2018-08-20T07:48:42.708Z,79.75
2018-08-20T07:51:12.752Z,79.42
2018-08-20T07:53:42.140Z,79.61
2018-08-20T07:56:11.586Z,79.74
2018-08-20T07:58:41.248Z,79.00
2018-08-20T08:01:10.765Z,78.76
2018-08-20T08:03:40.321Z,78.59
2018-08-20T08:06:09.982Z,79.25
2018-08-20T08:08:39.426Z,78.25
2018-08-20T08:11:08.996Z,78.58
2018-08-20T08:13:38.921Z,78.79
2018-08-20T08:16:08.621Z,78.55
2018-08-20T08:18:38.040Z,78.61
2018-08-20T08:21:07.476Z,77.93
2018-08-20T08:23:36.881Z,77.87
2018-08-20T08:26:07.188Z,77.54
2018-08-20T08:28:37.226Z,77.65
2018-08-20T08:31:07.018Z,77.75
2018-08-20T08:33:36.749Z,77.80
2018-08-20T08:36:06.591Z,77.74
2018-08-20T08:38:36.081Z,76.91
2018-08-20T08:41:05.880Z,75.60
2018-08-20T08:43:36.615Z,75.24
2018-08-20T08:46:06.943Z,74.52
2018-08-20T08:48:36.830Z,73.41
2018-08-20T08:51:06.571Z,72.33
2018-08-20T08:53:36.567Z,72.24
2018-08-20T08:56:06.570Z,71.28
2018-08-20T08:58:36.299Z,71.24
2018-08-20T09:01:06.469Z,70.59
2018-08-20T09:03:36.221Z,71.55
2018-08-20T09:06:06.509Z,72.04
2018-08-20T09:08:36.486Z,70.92
2018-08-20T09:11:06.010Z,70.39
2018-08-20T09:13:35.973Z,71.12
2018-08-20T09:16:05.726Z,70.42
2018-08-20T09:18:35.527Z,70.08
2018-08-20T09:21:05.607Z,67.83
2018-08-20T09:23:35.290Z,68.31
2018-08-20T09:26:05.030Z,68.62
2018-08-20T09:28:34.792Z,67.67
2018-08-20T09:31:04.506Z,68.46
2018-08-20T09:33:34.238Z,68.27
2018-08-20T09:36:04.351Z,67.06
2018-08-20T09:38:33.729Z,66.33
2018-08-20T09:41:03.465Z,66.12
2018-08-20T09:43:33.352Z,65.73
2018-08-20T09:46:03.203Z,66.42
2018-08-20T09:48:33.164Z,66.90
2018-08-20T09:51:02.847Z,65.19
2018-08-20T09:53:32.430Z,65.60
2018-08-20T09:56:02.193Z,63.90
2018-08-20T09:58:31.941Z,63.96
2018-08-20T10:01:01.327Z,64.48
2018-08-20T10:03:30.776Z,64.12
2018-08-20T10:06:00.231Z,63.02
2018-08-20T10:08:29.659Z,63.30
2018-08-20T10:10:59.008Z,62.42
2018-08-20T10:13:28.751Z,61.01
2018-08-20T10:15:58.124Z,59.96
2018-08-20T10:18:27.543Z,58.59
2018-08-20T10:20:57.437Z,58.95
2018-08-20T10:23:27.138Z,58.85
2018-08-20T10:25:56.473Z,59.31
2018-08-20T10:28:26.330Z,59.46
2018-08-20T10:30:55.698Z,58.71
2018-08-20T10:33:25.416Z,57.77
2018-08-20T10:35:54.951Z,58.45
2018-08-20T10:38:24.466Z,55.34
2018-08-20T10:40:54.167Z,55.01
2018-08-20T10:43:23.754Z,54.91
2018-08-20T10:45:58.429Z,53.30
2018-08-20T10:48:28.194Z,52.33
2018-08-20T10:50:57.867Z,52.63
2018-08-20T10:53:27.312Z,50.80
2018-08-20T10:55:57.118Z,50.21
2018-08-20T10:58:26.563Z,50.48
2018-08-20T11:00:56.084Z,49.45
2018-08-20T11:03:25.832Z,49.50
2018-08-20T11:05:55.532Z,49.36
2018-08-20T11:08:24.846Z,50.50
2018-08-20T11:10:54.837Z,50.45
2018-08-20T11:13:24.306Z,49.03
2018-08-20T11:15:54.127Z,50.43
2018-08-20T11:18:23.757Z,50.76
2018-08-20T11:20:53.159Z,50.95
2018-08-20T11:23:22.420Z,48.96
2018-08-20T11:25:51.911Z,46.35
2018-08-20T11:28:21.358Z,47.97
2018-08-20T11:30:50.765Z,48.58
2018-08-20T11:33:20.382Z,48.40
2018-08-20T11:35:49.657Z,47.71
2018-08-20T11:38:19.031Z,46.43
2018-08-20T11:40:49.148Z,48.17
2018-08-20T11:43:18.582Z,48.54
2018-08-20T11:45:47.796Z,49.04
2018-08-20T11:48:17.415Z,48.41
2018-08-20T11:50:46.835Z,48.66
2018-08-20T11:53:16.215Z,49.36
2018-08-20T11:55:45.822Z,49.36
2018-08-20T11:58:15.233Z,51.22
2018-08-20T12:00:44.632Z,51.92
2018-08-20T12:03:14.436Z,52.42
2018-08-20T12:05:44.024Z,52.72
2018-08-20T12:08:13.395Z,53.03
2018-08-20T12:10:43.373Z,53.36
2018-08-20T12:13:13.032Z,51.98
2018-08-20T12:15:42.618Z,51.67
2018-08-20T12:18:12.223Z,52.50
2018-08-20T12:20:41.951Z,51.81
2018-08-20T12:23:11.421Z,51.94
2018-08-20T12:25:40.950Z,52.13
2018-08-20T12:28:10.337Z,52.63
2018-08-20T12:30:39.673Z,52.81
2018-08-20T12:33:09.412Z,52.21
2018-08-20T12:35:38.697Z,52.73
2018-08-20T12:38:08.227Z,53.13
2018-08-20T12:40:37.814Z,53.69
2018-08-20T12:43:07.243Z,53.54
2018-08-20T12:45:37.144Z,52.82
2018-08-20T12:48:06.873Z,52.31
2018-08-20T12:50:36.665Z,52.08
2018-08-20T12:53:07.122Z,52.37
2018-08-20T12:55:36.711Z,52.11
2018-08-20T12:58:06.543Z,51.63
2018-08-20T13:00:36.325Z,51.81
2018-08-20T13:03:07.278Z,52.15
2018-08-20T13:05:36.778Z,51.11
2018-08-20T13:08:07.697Z,51.28
2018-08-20T13:10:37.281Z,51.47
2018-08-20T13:13:06.921Z,51.51
2018-08-20T13:15:36.624Z,51.09
2018-08-20T13:18:06.644Z,51.63
2018-08-20T13:20:36.364Z,51.45
2018-08-20T13:23:07.226Z,51.00
2018-08-20T13:25:37.942Z,51.29
2018-08-20T13:28:07.349Z,50.65
2018-08-20T13:30:36.894Z,49.71
2018-08-20T13:33:06.791Z,50.14
2018-08-20T13:35:36.292Z,49.65
2018-08-20T13:38:05.936Z,49.70
2018-08-20T13:40:36.116Z,50.21
2018-08-20T13:43:05.633Z,49.25
2018-08-20T13:45:35.216Z,49.28
2018-08-20T13:48:04.937Z,49.41
2018-08-20T13:50:34.395Z,49.07
2018-08-20T13:53:03.906Z,49.18
2018-08-20T13:55:33.915Z,47.95
2018-08-20T13:58:04.572Z,48.16
2018-08-20T14:00:34.505Z,48.80
2018-08-20T14:03:03.992Z,48.68
2018-08-20T14:05:33.879Z,49.02
2018-08-20T14:08:03.793Z,49.05
2018-08-20T14:10:33.817Z,49.13
2018-08-20T14:13:04.148Z,49.04
2018-08-20T14:15:33.697Z,46.70
2018-08-20T14:18:04.125Z,47.15
2018-08-20T14:20:33.682Z,46.74
2018-08-20T14:23:04.745Z,46.76
2018-08-20T14:25:36.032Z,47.17
2018-08-20T14:28:05.692Z,46.71
2018-08-20T14:30:36.813Z,47.31
2018-08-20T14:33:06.527Z,47.34
2018-08-20T14:35:36.387Z,47.08
2018-08-20T14:38:05.914Z,47.48
2018-08-20T14:40:36.082Z,47.73
2018-08-20T14:43:05.565Z,47.07
2018-08-20T14:45:40.189Z,47.84
2018-08-20T14:48:09.981Z,47.42
2018-08-20T14:50:39.314Z,46.80
2018-08-20T14:53:08.696Z,48.43
2018-08-20T14:55:38.157Z,48.48
2018-08-20T14:58:07.513Z,49.38
2018-08-20T15:00:36.967Z,48.71
2018-08-20T15:03:07.659Z,48.42
2018-08-20T15:05:37.431Z,48.07
2018-08-20T15:08:06.996Z,47.85
2018-08-20T15:10:36.861Z,48.03
2018-08-20T15:13:06.963Z,47.81
2018-08-20T15:15:37.714Z,48.23
2018-08-20T15:18:07.238Z,46.92
2018-08-20T15:20:37.227Z,46.80
2018-08-20T15:23:07.123Z,46.86
2018-08-20T15:25:36.990Z,46.59
2018-08-20T15:28:06.742Z,46.25
2018-08-20T15:30:36.378Z,47.19
2018-08-20T15:33:06.086Z,46.67
2018-08-20T15:35:36.182Z,46.37
2018-08-20T15:38:05.945Z,45.71
2018-08-20T15:40:35.752Z,45.26
2018-08-20T15:43:05.245Z,45.80
2018-08-20T15:45:35.095Z,46.94
2018-08-20T15:48:04.673Z,47.17
2018-08-20T15:50:34.387Z,46.74
2018-08-20T15:53:05.179Z,47.52
2018-08-20T15:55:34.671Z,48.14
2018-08-20T15:58:04.495Z,48.06
2018-08-20T16:00:34.363Z,48.49
2018-08-20T16:03:03.960Z,48.20
2018-08-20T16:05:33.534Z,48.04
2018-08-20T16:08:03.266Z,48.62
2018-08-20T16:10:32.685Z,48.42
2018-08-20T16:13:02.171Z,48.40
2018-08-20T16:15:31.884Z,48.52
2018-08-20T16:18:01.250Z,48.24
2018-08-20T16:20:30.773Z,47.82
2018-08-20T16:23:00.396Z,48.39
2018-08-20T16:25:29.811Z,48.38
2018-08-20T16:27:59.161Z,49.42
2018-08-20T16:30:28.785Z,49.39
2018-08-20T16:32:58.219Z,50.97
2018-08-20T16:35:27.725Z,51.22
2018-08-20T16:37:57.326Z,51.48
2018-08-20T16:40:26.738Z,51.78
2018-08-20T16:42:56.131Z,51.43
2018-08-20T16:45:25.931Z,51.52
2018-08-20T16:47:55.272Z,51.44
2018-08-20T16:50:24.679Z,51.38
2018-08-20T16:52:54.566Z,50.84
2018-08-20T16:55:25.241Z,51.14
2018-08-20T16:57:54.959Z,50.85
2018-08-20T17:00:24.511Z,51.32
2018-08-20T17:02:53.807Z,51.64
2018-08-20T17:05:23.344Z,51.97
2018-08-20T17:07:52.794Z,53.25
2018-08-20T17:10:22.296Z,53.48
2018-08-20T17:12:51.639Z,53.48
2018-08-20T17:15:22.149Z,53.90
2018-08-20T17:17:51.513Z,54.25
2018-08-20T17:20:20.969Z,54.40
2018-08-20T17:22:50.426Z,54.26
2018-08-20T17:25:19.982Z,54.30
2018-08-20T17:27:53.149Z,54.58
2018-08-20T17:30:23.959Z,54.86
2018-08-20T17:32:53.309Z,55.22
2018-08-20T17:35:23.138Z,55.59
2018-08-20T17:37:53.847Z,55.22
2018-08-20T17:40:23.255Z,54.70
2018-08-20T17:42:52.653Z,54.49
2018-08-20T17:45:22.358Z,53.43
2018-08-20T17:47:51.679Z,52.96
2018-08-20T17:50:34.099Z,52.75
2018-08-20T17:53:03.547Z,52.98
2018-08-20T17:55:32.989Z,52.97
2018-08-20T17:58:02.506Z,52.10
2018-08-20T18:00:39.157Z,52.55
2018-08-20T18:03:22.616Z,52.03
2018-08-20T18:05:55.958Z,52.21
2018-08-20T18:08:26.783Z,52.64
2018-08-20T18:10:56.437Z,52.34
2018-08-20T18:13:57.795Z,52.06
2018-08-20T18:16:27.556Z,52.03
2018-08-20T18:18:56.685Z,52.58
2018-08-20T18:21:26.000Z,52.46
2018-08-20T18:23:55.271Z,52.56
2018-08-20T18:26:29.047Z,52.63
2018-08-20T18:28:58.389Z,52.83
2018-08-20T18:31:28.564Z,53.13
2018-08-20T18:33:57.752Z,53.50
2018-08-20T18:36:30.689Z,53.83
2018-08-20T18:39:17.661Z,54.23
2018-08-20T18:41:52.726Z,54.80
2018-08-20T18:44:23.552Z,55.47
2018-08-20T18:46:53.179Z,56.20
2018-08-20T18:49:23.364Z,56.31
2018-08-20T18:52:02.552Z,56.84
2018-08-20T18:54:37.140Z,58.17
2018-08-20T18:57:07.140Z,58.47
2018-08-20T18:59:37.721Z,58.72
2018-08-20T19:02:08.371Z,59.62
2018-08-20T19:04:47.090Z,59.23
2018-08-20T19:07:16.949Z,59.54
2018-08-20T19:09:49.158Z,60.11
2018-08-20T19:12:18.623Z,60.79
2018-08-20T19:14:48.350Z,60.77
2018-08-20T19:17:24.427Z,61.11
2018-08-20T19:19:53.810Z,61.44
2018-08-20T19:22:27.706Z,61.85
2018-08-20T19:24:57.036Z,61.57
2018-08-20T19:27:34.078Z,61.74
2018-08-20T19:30:13.917Z,61.93
2018-08-20T19:32:43.173Z,61.99
2018-08-20T19:35:12.513Z,62.66
2018-08-20T19:37:42.093Z,63.01
2018-08-20T19:40:11.751Z,63.22
2018-08-20T19:42:41.335Z,64.01
2018-08-20T19:45:12.847Z,64.28
2018-08-20T19:47:42.646Z,64.59
2018-08-20T19:50:13.270Z,65.02
2018-08-20T19:52:42.702Z,65.45
2018-08-20T19:55:13.823Z,65.51
2018-08-20T19:57:43.052Z,65.87
2018-08-20T20:00:14.353Z,66.08
2018-08-20T20:02:44.792Z,66.50
2018-08-20T20:05:15.589Z,66.96
2018-08-20T20:07:53.908Z,66.77
2018-08-20T20:10:23.338Z,66.71
2018-08-20T20:12:54.084Z,67.20
2018-08-20T20:15:24.173Z,67.10
2018-08-20T20:17:55.922Z,66.77
2018-08-20T20:20:25.674Z,66.78
2018-08-20T20:22:54.889Z,66.92
2018-08-20T20:25:24.214Z,67.33
2018-08-20T20:27:53.564Z,67.49
2018-08-20T20:30:23.250Z,67.78
2018-08-20T20:32:52.717Z,67.36
2018-08-20T20:35:21.978Z,67.96
2018-08-20T20:37:51.324Z,68.49
2018-08-20T20:40:21.613Z,68.52
2018-08-20T20:42:52.366Z,68.64
2018-08-20T20:45:22.397Z,69.40
2018-08-20T20:47:51.439Z,69.62
2018-08-20T20:50:21.711Z,69.52
2018-08-20T20:52:51.064Z,69.29
2018-08-20T20:55:20.155Z,69.58
2018-08-20T20:57:49.439Z,69.48
2018-08-20T21:00:19.070Z,68.79
2018-08-20T21:02:48.815Z,69.21
2018-08-20T21:05:17.934Z,69.21
2018-08-20T21:07:47.349Z,68.89
2018-08-20T21:10:16.530Z,69.56
2018-08-20T21:12:45.580Z,69.63
2018-08-20T21:15:14.943Z,69.83
2018-08-20T21:17:44.485Z,70.37
2018-08-20T21:20:14.409Z,69.83
2018-08-20T21:22:44.103Z,70.20
2018-08-20T21:25:13.475Z,70.52
2018-08-20T21:27:43.081Z,70.57
2018-08-20T21:30:12.829Z,70.45
2018-08-20T21:32:42.315Z,70.74
2018-08-20T21:35:11.613Z,71.33
2018-08-20T21:37:41.389Z,71.25
2018-08-20T21:40:15.078Z,70.95
2018-08-20T21:42:44.542Z,71.71
2018-08-20T21:45:13.949Z,71.48
2018-08-20T21:47:43.779Z,72.06
2018-08-20T21:50:13.471Z,71.46
2018-08-20T21:52:42.852Z,72.00
2018-08-20T21:55:12.220Z,71.89
2018-08-20T21:57:46.133Z,71.58
2018-08-20T22:00:16.961Z,71.62
2018-08-20T22:02:54.497Z,71.95
2018-08-20T22:05:24.759Z,71.31
2018-08-20T22:07:56.979Z,71.38
2018-08-20T22:10:27.567Z,72.09
2018-08-20T22:12:57.095Z,72.36
2018-08-20T22:15:26.335Z,72.74
2018-08-20T22:17:55.377Z,73.06
2018-08-20T22:20:25.053Z,73.00
2018-08-20T22:22:54.532Z,72.70
2018-08-20T22:25:24.564Z,72.31
2018-08-20T22:27:56.371Z,72.21
2018-08-20T22:30:26.089Z,71.98
2018-08-20T22:32:55.422Z,71.70
2018-08-20T22:35:26.456Z,72.10
2018-08-20T22:37:55.505Z,71.62
2018-08-20T22:40:24.924Z,71.84
2018-08-20T22:42:58.656Z,72.34
2018-08-20T22:45:28.154Z,72.05
2018-08-20T22:47:57.577Z,72.23
2018-08-20T22:50:38.008Z,72.31
2018-08-20T22:53:07.936Z,72.59
2018-08-20T22:55:37.734Z,73.11
2018-08-20T22:58:10.963Z,72.85
2018-08-20T23:00:40.270Z,72.56
2018-08-20T23:03:09.842Z,72.65
2018-08-20T23:05:39.626Z,72.55
2018-08-20T23:08:13.957Z,72.96
2018-08-20T23:10:44.101Z,73.05
2018-08-20T23:13:13.212Z,72.72
2018-08-20T23:15:42.325Z,73.00
2018-08-20T23:18:11.885Z,73.30
2018-08-20T23:20:41.701Z,73.25
2018-08-20T23:23:11.218Z,73.37
2018-08-20T23:25:40.703Z,73.62
2018-08-20T23:28:10.137Z,73.40
2018-08-20T23:30:40.335Z,73.31
2018-08-20T23:33:10.045Z,73.36
2018-08-20T23:35:39.756Z,73.61
2018-08-20T23:38:09.202Z,73.81
2018-08-20T23:40:39.069Z,73.60
2018-08-20T23:43:08.808Z,73.41
2018-08-20T23:45:38.377Z,74.11
2018-08-20T23:48:07.883Z,74.05
2018-08-20T23:50:37.772Z,73.89
2018-08-20T23:53:07.546Z,73.39
2018-08-20T23:55:37.442Z,73.98
2018-08-20T23:58:07.071Z,73.65
